Time;durP1;ratioP1;P1;durP2;ratioP2;P2;SDS_P1;SDS_P2;PMS_P1;PMS_P2;Temp;Humidity;BMP_temperature;BMP_pressure;BME280_temperature;BME280_humidity;BME280_pressure;Samples;Min_cycle;Max_cycle;Signal;HPM_P1;HPM_P2
2023/09/29 00:01:44;;;;;;;21.58;19.33;;;;;;;16.43;100.00;100950.16;7388979;19;20368;-61
2023/09/29 00:04:10;;;;;;;22.45;20.05;;;;;;;16.43;99.98;100952.03;7387229;19;20371;-62
2023/09/29 00:06:37;;;;;;;21.93;19.73;;;;;;;16.41;99.72;100938.00;7389246;19;20420;-61
2023/09/29 00:09:07;;;;;;;23.25;20.65;;;;;;;16.40;100.00;100936.34;7386973;19;20373;-62
2023/09/29 00:11:34;;;;;;;25.05;22.35;;;;;;;16.38;100.00;100944.59;7384543;19;20886;-61
2023/09/29 00:14:01;;;;;;;23.85;21.40;;;;;;;16.36;100.00;100946.66;7385817;19;20893;-62
2023/09/29 00:16:28;;;;;;;24.20;21.75;;;;;;;16.36;100.00;100945.81;7384954;19;20380;-62
2023/09/29 00:18:55;;;;;;;24.50;21.98;;;;;;;16.34;100.00;100947.88;7386228;19;20372;-61
2023/09/29 00:21:23;;;;;;;23.50;21.07;;;;;;;16.30;100.00;100959.03;7391048;19;20954;-61
2023/09/29 00:23:50;;;;;;;23.03;20.90;;;;;;;16.25;100.00;100955.31;7388836;19;20371;-62
2023/09/29 00:26:17;;;;;;;21.48;19.38;;;;;;;16.21;100.00;100957.56;7392042;19;20368;-62
2023/09/29 00:28:47;;;;;;;23.70;19.25;;;;;;;16.21;100.00;100956.75;7389113;19;20367;-62
2023/09/29 00:31:15;;;;;;;22.67;19.52;;;;;;;16.19;100.00;100942.75;7390642;19;20385;-62
2023/09/29 00:33:42;;;;;;;22.40;20.05;;;;;;;16.18;100.00;100946.47;7389193;19;20336;-61
2023/09/29 00:36:10;;;;;;;22.77;20.58;;;;;;;16.18;100.00;100947.28;7388380;19;20478;-62
2023/09/29 00:38:37;;;;;;;21.92;19.83;;;;;;;16.17;100.00;100945.66;7386589;19;20396;-61
2023/09/29 00:41:04;;;;;;;23.33;20.93;;;;;;;16.16;100.00;100952.00;7387278;19;20360;-61
2023/09/29 00:43:32;;;;;;;22.17;19.77;;;;;;;16.18;100.00;100949.94;7387280;19;20388;-61
2023/09/29 00:45:59;;;;;;;22.13;19.90;;;;;;;16.18;100.00;100946.47;7386903;19;20679;-61
2023/09/29 00:48:30;;;;;;;23.10;20.67;;;;;;;16.19;100.00;100935.53;7387369;19;20380;-61
2023/09/29 00:50:57;;;;;;;22.75;20.30;;;;;;;16.21;100.00;100932.66;7383692;19;20911;-62
2023/09/29 00:53:24;;;;;;;23.58;21.17;;;;;;;16.22;100.00;100931.63;7386283;19;20372;-61
2023/09/29 00:55:52;;;;;;;24.53;22.07;;;;;;;16.23;100.00;100920.72;7388002;19;20381;-61
2023/09/29 00:58:19;;;;;;;24.25;21.92;;;;;;;16.27;100.00;100913.91;7389495;19;20379;-61
2023/09/29 01:00:46;;;;;;;22.63;20.25;;;;;;;16.29;100.00;100916.38;7389110;19;20363;-61
2023/09/29 01:03:14;;;;;;;23.35;20.95;;;;;;;16.31;100.00;100919.69;7390057;19;20720;-61
2023/09/29 01:05:46;;;;;;;20.20;18.20;;;;;;;16.30;100.00;100905.47;7388940;19;20385;-61
2023/09/29 01:08:19;;;;;;;21.80;19.55;;;;;;;16.35;100.00;100904.03;7388207;19;20372;-61
2023/09/29 01:10:46;;;;;;;23.30;20.50;;;;;;;16.38;100.00;100911.63;7385314;19;20371;-62
2023/09/29 01:13:15;;;;;;;22.83;20.05;;;;;;;16.38;100.00;100912.44;7387930;19;20384;-61
2023/09/29 01:15:42;;;;;;;23.87;21.47;;;;;;;16.40;100.00;100915.75;7390063;19;20457;-61
2023/09/29 01:18:09;;;;;;;24.90;22.30;;;;;;;16.41;100.00;100914.72;7387633;19;20364;-61
2023/09/29 01:20:40;;;;;;;23.50;21.10;;;;;;;16.44;100.00;100910.81;7387124;19;20369;-62
2023/09/29 01:23:09;;;;;;;23.73;21.33;;;;;;;16.45;100.00;100909.78;7384172;19;20729;-61
2023/09/29 01:25:36;;;;;;;25.98;22.98;;;;;;;16.44;100.00;100906.28;7384885;19;20865;-62
2023/09/29 01:28:05;;;;;;;24.85;22.25;;;;;;;16.45;100.00;100913.28;7386913;19;20879;-62
2023/09/29 01:30:33;;;;;;;25.42;22.83;;;;;;;16.46;100.00;100914.09;7384345;19;20356;-62
2023/09/29 01:33:00;;;;;;;25.70;23.00;;;;;;;16.47;100.00;100911.22;7387697;19;20406;-61
2023/09/29 01:35:27;;;;;;;26.48;23.67;;;;;;;16.49;100.00;100911.00;7388028;19;20376;-61
2023/09/29 01:37:59;;;;;;;25.15;22.55;;;;;;;16.51;100.00;100909.78;7386985;19;20376;-61
2023/09/29 01:40:27;;;;;;;25.00;22.38;;;;;;;16.54;100.00;100907.72;7386831;19;20363;-62
2023/09/29 01:42:56;;;;;;;27.63;24.77;;;;;;;16.58;100.00;100909.75;7387880;19;20361;-61
2023/09/29 01:45:25;;;;;;;26.80;24.10;;;;;;;16.62;100.00;100902.13;7385306;19;20975;-61
2023/09/29 01:47:53;;;;;;;26.37;23.83;;;;;;;16.67;100.00;100907.69;7387066;19;20364;-62
2023/09/29 01:50:21;;;;;;;25.95;23.38;;;;;;;16.69;100.00;100906.44;7383228;19;20380;-62
2023/09/29 01:52:49;;;;;;;26.58;23.77;;;;;;;16.77;100.00;100907.25;7386789;19;20369;-62
2023/09/29 01:55:21;;;;;;;25.70;23.10;;;;;;;16.80;100.00;100914.84;7385264;19;20369;-62
2023/09/29 01:57:49;;;;;;;25.70;23.20;;;;;;;16.86;100.00;100914.06;7386748;19;20364;-62
2023/09/29 02:00:35;;;;;;;25.50;22.87;;;;;;;16.92;100.00;100915.88;7385302;19;20463;-62
2023/09/29 02:03:06;;;;;;;25.60;23.00;;;;;;;16.95;100.00;100911.94;7387198;19;20428;-61
2023/09/29 02:05:33;;;;;;;24.25;21.98;;;;;;;16.99;100.00;100914.00;7387077;19;20357;-62
2023/09/29 02:08:04;;;;;;;24.50;22.00;;;;;;;17.03;100.00;100915.22;7387865;19;20832;-62
2023/09/29 02:10:30;;;;;;;23.35;21.10;;;;;;;17.05;100.00;100913.16;7382682;19;20940;-63
2023/09/29 02:12:59;;;;;;;24.00;21.70;;;;;;;17.07;100.00;100916.44;7386349;19;20352;-62
2023/09/29 02:15:29;;;;;;;26.73;21.45;;;;;;;17.11;100.00;100912.31;7383903;19;20444;-62
2023/09/29 02:17:57;;;;;;;22.40;19.75;;;;;;;17.15;100.00;100907.34;7386144;19;20371;-62
2023/09/29 02:20:28;;;;;;;21.30;19.17;;;;;;;17.19;100.00;100910.41;7384941;19;20372;-61
2023/09/29 02:23:00;;;;;;;19.92;17.88;;;;;;;17.23;100.00;100912.44;7385461;19;20376;-62
2023/09/29 02:25:29;;;;;;;19.80;17.40;;;;;;;17.26;100.00;100905.84;7379791;19;20886;-61
2023/09/29 02:27:58;;;;;;;18.33;16.47;;;;;;;17.29;100.00;100911.59;7385135;19;20385;-61
2023/09/29 02:30:26;;;;;;;18.33;16.30;;;;;;;17.35;100.00;100907.25;7387682;19;20379;-61
2023/09/29 02:32:53;;;;;;;17.60;15.25;;;;;;;17.41;100.00;100911.75;7386875;19;20353;-61
2023/09/29 02:35:21;;;;;;;17.08;15.02;;;;;;;17.46;100.00;100903.88;7384434;19;20452;-62
2023/09/29 02:37:48;;;;;;;15.70;14.10;;;;;;;17.52;99.91;100903.00;7387916;19;20369;-62
2023/09/29 02:40:15;;;;;;;15.27;12.88;;;;;;;17.57;99.87;100909.59;7381549;19;20372;-61
2023/09/29 02:42:44;;;;;;;13.27;11.87;;;;;;;17.61;99.56;100902.75;7387607;19;20378;-61
2023/09/29 02:45:12;;;;;;;14.93;11.93;;;;;;;17.66;99.30;100900.22;7385334;19;20927;-61
2023/09/29 02:47:39;;;;;;;12.00;10.85;;;;;;;17.70;99.38;100888.88;7383476;19;20368;-61
2023/09/29 02:50:10;;;;;;;12.27;11.07;;;;;;;17.76;98.87;100887.16;7383222;19;20375;-61
2023/09/29 02:52:39;;;;;;;12.30;11.00;;;;;;;17.80;98.76;100883.00;7385637;19;20770;-62
2023/09/29 02:55:12;;;;;;;12.05;10.68;;;;;;;17.84;98.30;100886.13;7386182;19;20356;-62
2023/09/29 02:57:41;;;;;;;11.68;10.30;;;;;;;17.87;98.58;100889.19;7386841;19;20372;-62
2023/09/29 03:00:15;;;;;;;11.02;10.00;;;;;;;17.89;98.43;100886.28;7382360;19;20714;-61
2023/09/29 03:02:42;;;;;;;11.63;10.43;;;;;;;17.92;98.17;100886.66;7385850;19;20424;-61
2023/09/29 03:05:09;;;;;;;11.82;10.25;;;;;;;17.95;97.84;100890.75;7384265;19;20360;-62
2023/09/29 03:07:36;;;;;;;11.63;10.40;;;;;;;17.98;98.03;100884.13;7389366;19;20343;-61
2023/09/29 03:10:10;;;;;;;12.98;9.68;;;;;;;17.99;98.03;100885.78;7391406;19;20378;-62
2023/09/29 03:12:37;;;;;;;10.50;9.40;;;;;;;18.01;98.09;100894.44;7392658;19;20336;-61
2023/09/29 03:15:09;;;;;;;10.45;9.35;;;;;;;18.04;97.55;100899.38;7385378;19;20364;-61
2023/09/29 03:17:36;;;;;;;12.82;9.52;;;;;;;18.06;97.71;100891.91;7389407;19;20427;-61
2023/09/29 03:20:10;;;;;;;9.35;8.35;;;;;;;18.09;97.62;100894.19;7384718;19;20364;-62
2023/09/29 03:22:44;;;;;;;9.43;8.50;;;;;;;18.13;97.31;100892.69;7386399;19;20424;-62
2023/09/29 03:25:16;;;;;;;9.63;8.43;;;;;;;18.18;96.68;100890.16;7387736;19;20998;-62
2023/09/29 03:27:44;;;;;;;9.82;7.63;;;;;;;18.22;96.52;100886.00;7388957;19;20402;-62
2023/09/29 03:30:12;;;;;;;11.40;8.35;;;;;;;18.28;96.27;100886.97;7385304;19;20891;-62
2023/09/29 03:32:39;;;;;;;9.20;7.93;;;;;;;18.31;95.81;100879.28;7388215;19;20436;-62
2023/09/29 03:35:08;;;;;;;10.63;8.20;;;;;;;18.36;95.50;100885.84;7384660;19;20762;-61
2023/09/29 03:37:37;;;;;;;10.25;8.07;;;;;;;18.37;95.37;100874.09;7387581;19;20442;-62
2023/09/29 03:40:11;;;;;;;9.07;8.10;;;;;;;18.38;95.00;100878.41;7385787;19;20421;-62
2023/09/29 03:42:41;;;;;;;10.38;8.63;;;;;;;18.38;95.00;100873.84;7386587;19;20367;-61
2023/09/29 03:45:11;;;;;;;11.95;8.68;;;;;;;18.38;94.54;100883.78;7387881;19;21264;-62
2023/09/29 03:47:38;;;;;;;9.90;8.90;;;;;;;18.38;94.68;100886.47;7387624;19;20888;-62
2023/09/29 03:50:12;;;;;;;9.38;8.43;;;;;;;18.40;94.42;100873.63;7385491;19;20375;-63
2023/09/29 03:52:42;;;;;;;9.40;8.40;;;;;;;18.41;94.27;100883.34;7384645;19;20363;-62
2023/09/29 03:55:10;;;;;;;12.52;8.50;;;;;;;18.41;94.11;100883.34;7384775;19;20370;-62
2023/09/29 03:57:37;;;;;;;11.40;8.43;;;;;;;18.41;94.25;100875.28;7386200;19;20368;-62
2023/09/29 04:00:11;;;;;;;11.40;8.97;;;;;;;18.42;93.92;100880.41;7387198;19;20776;-63
2023/09/29 04:02:40;;;;;;;10.60;8.32;;;;;;;18.42;93.92;100880.41;7386796;19;20352;-63
2023/09/29 04:05:07;;;;;;;9.33;8.37;;;;;;;18.42;93.80;100880.41;7385741;19;20372;-63
2023/09/29 04:07:36;;;;;;;9.55;8.55;;;;;;;18.43;93.69;100886.63;7385275;19;20368;-61
2023/09/29 04:10:05;;;;;;;11.30;8.57;;;;;;;18.42;93.60;100874.22;7381447;19;20368;-62
2023/09/29 04:12:31;;;;;;;13.32;8.60;;;;;;;18.40;93.87;100885.19;7387012;19;20368;-63
2023/09/29 04:14:58;;;;;;;9.75;8.65;;;;;;;18.41;93.67;100877.97;7387581;19;20668;-62
2023/09/29 04:17:25;;;;;;;9.55;8.02;;;;;;;18.42;93.75;100874.22;7385463;19;20372;-62
2023/09/29 04:19:55;;;;;;;10.20;7.95;;;;;;;18.43;93.73;100881.25;7385011;19;20371;-62
2023/09/29 04:22:24;;;;;;;8.45;7.38;;;;;;;18.44;93.40;100872.16;7385412;19;20379;-62
2023/09/29 04:24:51;;;;;;;10.18;7.45;;;;;;;18.45;93.26;100873.81;7385015;19;20373;-62
2023/09/29 04:27:18;;;;;;;9.27;7.57;;;;;;;18.47;93.40;100875.22;7386533;19;20365;-62
2023/09/29 04:29:46;;;;;;;9.40;7.13;;;;;;;18.48;93.31;100867.97;7383043;19;20420;-62
2023/09/29 04:32:13;;;;;;;9.77;7.57;;;;;;;18.48;93.01;100873.34;7380660;19;20941;-62
2023/09/29 04:34:40;;;;;;;9.35;7.03;;;;;;;18.47;92.70;100877.09;7387819;19;20425;-62
2023/09/29 04:37:07;;;;;;;9.38;6.90;;;;;;;18.46;92.87;100880.81;7385766;19;20447;-64
2023/09/29 04:39:34;;;;;;;8.95;6.75;;;;;;;18.48;92.66;100874.16;7384924;19;20368;-64
2023/09/29 04:42:02;;;;;;;8.90;7.25;;;;;;;18.49;92.77;100866.94;7387673;19;20701;-64
2023/09/29 04:44:29;;;;;;;10.17;6.53;;;;;;;18.50;92.30;100871.25;7386704;19;20369;-63
2023/09/29 04:46:56;;;;;;;9.15;7.40;;;;;;;18.50;92.29;100865.88;7383143;19;20369;-64
2023/09/29 04:49:22;;;;;;;11.02;7.35;;;;;;;18.50;92.20;100872.06;7386813;19;20875;-64
2023/09/29 04:51:49;;;;;;;9.83;7.13;;;;;;;18.50;92.36;100863.19;7383967;19;20870;-64
2023/09/29 04:54:16;;;;;;;9.67;7.20;;;;;;;18.51;92.29;100868.34;7384033;19;20356;-64
2023/09/29 04:56:43;;;;;;;8.57;6.30;;;;;;;18.51;92.15;100872.91;7385361;19;20368;-64
2023/09/29 04:59:10;;;;;;;9.32;6.57;;;;;;;18.51;92.03;100867.53;7384570;19;20372;-64
2023/09/29 05:01:37;;;;;;;9.48;8.07;;;;;;;18.50;92.04;100868.56;7379857;19;20350;-64
2023/09/29 05:04:05;;;;;;;8.80;6.60;;;;;;;18.49;91.66;100869.63;7380322;19;20372;-64
2023/09/29 05:06:32;;;;;;;7.57;6.20;;;;;;;18.51;91.83;100872.91;7380266;19;20355;-63
2023/09/29 05:08:59;;;;;;;9.27;6.40;;;;;;;18.50;91.98;100865.88;7380687;19;20383;-64
2023/09/29 05:11:27;;;;;;;9.57;6.40;;;;;;;18.50;91.66;100866.69;7378059;19;20385;-64
2023/09/29 05:13:57;;;;;;;7.35;5.85;;;;;;;18.50;91.37;100860.50;7379891;19;20356;-63
2023/09/29 05:16:24;;;;;;;7.88;6.20;;;;;;;18.50;91.46;100861.31;7383034;19;20344;-63
2023/09/29 05:18:53;;;;;;;7.53;5.72;;;;;;;18.49;91.76;100854.31;7384173;19;20376;-64
2023/09/29 05:21:22;;;;;;;7.53;5.90;;;;;;;18.49;91.88;100853.50;7382605;19;20365;-63
2023/09/29 05:23:49;;;;;;;7.13;5.55;;;;;;;18.49;91.55;100851.63;7386044;19;20911;-64
2023/09/29 05:26:16;;;;;;;7.47;5.50;;;;;;;18.51;91.82;100846.06;7377088;19;20586;-64
2023/09/29 05:28:43;;;;;;;7.65;5.15;;;;;;;18.52;91.53;100847.69;7385825;19;20415;-64
2023/09/29 05:31:10;;;;;;;6.88;5.25;;;;;;;18.56;91.62;100853.44;7384029;19;20361;-64
2023/09/29 05:33:37;;;;;;;7.70;5.13;;;;;;;18.54;91.61;100853.66;7381171;19;20372;-63
2023/09/29 05:36:04;;;;;;;8.98;5.78;;;;;;;18.60;91.49;100849.25;7385870;19;20386;-64
2023/09/29 05:38:31;;;;;;;7.57;5.18;;;;;;;18.60;90.98;100844.69;7385635;19;20340;-64
2023/09/29 05:40:58;;;;;;;7.13;5.05;;;;;;;18.64;91.30;100845.88;7385804;19;20372;-64
2023/09/29 05:43:26;;;;;;;6.38;4.78;;;;;;;18.68;90.91;100852.47;7384194;19;20708;-64
2023/09/29 05:45:53;;;;;;;7.18;4.90;;;;;;;18.71;91.06;100852.00;7386070;19;20360;-63
2023/09/29 05:48:19;;;;;;;8.48;4.75;;;;;;;18.74;90.63;100851.56;7386596;19;20385;-64
2023/09/29 05:50:46;;;;;;;6.68;4.93;;;;;;;18.79;90.35;100858.16;7375570;19;20371;-64
2023/09/29 05:53:16;;;;;;;10.63;5.10;;;;;;;18.79;90.56;100853.59;7393014;19;20441;-64
2023/09/29 05:55:43;;;;;;;8.40;4.78;;;;;;;18.81;90.36;100851.50;7394861;19;20364;-64
2023/09/29 05:58:10;;;;;;;7.38;4.60;;;;;;;18.83;89.99;100859.31;7394737;19;20443;-64
2023/09/29 06:00:37;;;;;;;7.55;4.85;;;;;;;18.85;90.06;100857.22;7396151;19;20367;-63
2023/09/29 06:03:04;;;;;;;6.63;4.70;;;;;;;18.88;90.05;100851.44;7394128;19;20364;-62
2023/09/29 06:05:31;;;;;;;5.70;4.57;;;;;;;18.91;89.92;100862.56;7393918;19;20332;-63
2023/09/29 06:07:58;;;;;;;6.95;4.55;;;;;;;18.93;90.17;100851.56;7393691;19;20364;-62
2023/09/29 06:10:25;;;;;;;9.43;5.20;;;;;;;18.97;90.10;100843.88;7395108;19;20357;-62
2023/09/29 06:12:53;;;;;;;8.18;5.43;;;;;;;19.00;90.09;100849.63;7393397;19;20927;-62
2023/09/29 06:15:20;;;;;;;8.15;4.90;;;;;;;18.99;89.64;100847.97;7393855;19;20361;-62
2023/09/29 06:17:47;;;;;;;6.60;4.90;;;;;;;19.00;89.84;100864.91;7394873;19;20427;-62
2023/09/29 06:20:14;;;;;;;7.90;4.55;;;;;;;18.98;89.33;100867.84;7394040;19;20826;-63
2023/09/29 06:22:40;;;;;;;7.13;4.70;;;;;;;19.02;89.42;100884.31;7396227;19;20435;-63
2023/09/29 06:25:08;;;;;;;10.65;4.95;;;;;;;19.03;89.48;100881.41;7393332;19;20500;-63
2023/09/29 06:27:34;;;;;;;6.07;4.63;;;;;;;19.06;89.79;100880.97;7394442;19;20373;-63
2023/09/29 06:30:01;;;;;;;8.20;4.85;;;;;;;19.09;89.89;100874.31;7391781;19;20368;-63
2023/09/29 06:32:28;;;;;;;6.13;4.47;;;;;;;19.12;89.54;100874.66;7393118;19;20395;-63
2023/09/29 06:34:55;;;;;;;7.35;5.03;;;;;;;19.14;89.57;100877.94;7394081;19;20876;-62
2023/09/29 06:37:22;;;;;;;6.25;4.05;;;;;;;19.17;89.46;100875.84;7393616;19;20370;-63
2023/09/29 06:39:49;;;;;;;8.23;4.55;;;;;;;19.20;89.08;100881.59;7393474;19;20372;-62
2023/09/29 06:42:16;;;;;;;7.88;4.25;;;;;;;19.23;89.18;100881.16;7395888;19;20356;-62
2023/09/29 06:44:42;;;;;;;8.68;4.70;;;;;;;19.26;89.29;100893.34;7393651;19;20364;-63
2023/09/29 06:47:09;;;;;;;8.10;4.55;;;;;;;19.27;88.60;100894.97;7398173;19;20378;-63
2023/09/29 06:49:36;;;;;;;7.75;4.30;;;;;;;19.30;88.95;100902.59;7401904;19;20372;-63
2023/09/29 06:52:03;;;;;;;10.50;4.93;;;;;;;19.31;88.78;100883.50;7396933;19;20366;-63
2023/09/29 06:54:30;;;;;;;7.35;4.40;;;;;;;19.35;88.62;100868.56;7398970;19;20376;-63
2023/09/29 06:56:57;;;;;;;9.38;4.78;;;;;;;19.43;88.61;100875.50;7397532;19;20359;-62
2023/09/29 06:59:23;;;;;;;8.43;4.65;;;;;;;19.46;88.40;100874.22;7398318;19;20439;-63
2023/09/29 07:01:50;;;;;;;8.70;4.37;;;;;;;19.48;87.96;100872.94;7396083;19;20427;-63
2023/09/29 07:04:18;;;;;;;6.70;4.70;;;;;;;19.54;88.17;100872.00;7399348;19;20368;-63
2023/09/29 07:06:45;;;;;;;4.97;3.90;;;;;;;19.60;87.73;100874.84;7398665;19;20355;-63
2023/09/29 07:09:13;;;;;;;6.22;4.15;;;;;;;19.62;87.85;100867.38;7399921;19;20356;-63
2023/09/29 07:11:41;;;;;;;6.25;3.90;;;;;;;19.67;87.50;100872.88;7398806;19;20383;-63
2023/09/29 07:14:09;;;;;;;4.78;4.00;;;;;;;19.73;87.15;100874.66;7397412;19;20360;-63
2023/09/29 07:16:35;;;;;;;5.68;3.90;;;;;;;19.79;87.30;100872.94;7399179;19;20432;-65
2023/09/29 07:19:03;;;;;;;7.40;4.18;;;;;;;19.85;86.85;100864.75;7395140;19;20378;-62
2023/09/29 07:21:30;;;;;;;7.00;3.80;;;;;;;19.92;86.38;100861.94;7399608;19;20368;-63
2023/09/29 07:23:57;;;;;;;5.90;3.90;;;;;;;20.00;86.15;100858.91;7398269;19;20365;-63
2023/09/29 07:26:24;;;;;;;6.18;3.78;;;;;;;20.08;86.27;100855.03;7398837;19;20359;-63
2023/09/29 07:28:51;;;;;;;6.13;3.88;;;;;;;20.12;85.59;100857.00;7400032;19;20463;-63
2023/09/29 07:31:18;;;;;;;5.95;3.72;;;;;;;20.19;84.96;100854.22;7398051;19;20878;-63
2023/09/29 07:33:45;;;;;;;5.68;3.70;;;;;;;20.26;85.17;100846.84;7399891;19;20349;-63
2023/09/29 07:36:12;;;;;;;6.97;3.80;;;;;;;20.32;85.12;100845.88;7397715;19;20859;-63
2023/09/29 07:38:39;;;;;;;5.15;3.70;;;;;;;20.36;85.11;100847.06;7400503;19;20341;-63
2023/09/29 07:41:06;;;;;;;7.80;4.10;;;;;;;20.40;85.06;100847.41;7396627;19;20364;-63
2023/09/29 07:43:33;;;;;;;5.75;3.50;;;;;;;20.44;84.77;100858.53;7399397;19;20444;-63
2023/09/29 07:45:59;;;;;;;6.07;3.70;;;;;;;20.48;84.76;100865.06;7398021;19;20345;-62
2023/09/29 07:48:27;;;;;;;6.45;3.90;;;;;;;20.51;84.59;100870.81;7398256;19;20390;-62
2023/09/29 07:50:55;;;;;;;5.80;3.75;;;;;;;20.51;84.12;100875.41;7400222;19;20690;-64
2023/09/29 07:53:22;;;;;;;8.10;4.20;;;;;;;20.52;84.41;100882.41;7394178;19;20415;-63
2023/09/29 07:55:48;;;;;;;12.02;5.10;;;;;;;20.55;84.36;100881.97;7393448;19;20372;-63
2023/09/29 07:58:15;;;;;;;5.88;4.10;;;;;;;20.58;84.55;100865.34;7397702;19;20710;-63
2023/09/29 08:00:42;;;;;;;11.30;4.18;;;;;;;20.62;84.76;100869.19;7398264;19;20364;-63
2023/09/29 08:03:09;;;;;;;10.25;4.43;;;;;;;20.62;84.42;100873.78;7396230;19;20364;-63
2023/09/29 08:05:36;;;;;;;9.07;4.78;;;;;;;20.64;85.11;100871.66;7396290;19;20865;-63
2023/09/29 08:08:03;;;;;;;6.07;4.10;;;;;;;20.66;85.42;100878.44;7398168;19;20368;-63
2023/09/29 08:10:30;;;;;;;5.72;4.30;;;;;;;20.70;85.36;100868.81;7396142;19;20378;-63
2023/09/29 08:12:57;;;;;;;9.23;4.50;;;;;;;20.74;85.51;100859.22;7395129;19;20344;-63
2023/09/29 08:15:24;;;;;;;7.28;4.32;;;;;;;20.78;85.51;100864.91;7398271;19;20728;-63
2023/09/29 08:17:51;;;;;;;6.32;4.25;;;;;;;20.76;85.17;100857.09;7396514;19;20357;-63
2023/09/29 08:20:20;;;;;;;6.72;4.22;;;;;;;20.77;85.56;100871.38;7395534;19;20364;-63
2023/09/29 08:22:47;;;;;;;9.10;3.90;;;;;;;20.78;85.55;100870.31;7397939;19;20436;-63
2023/09/29 08:25:16;;;;;;;7.88;4.50;;;;;;;20.81;85.20;100869.84;7397709;19;20373;-62
2023/09/29 08:27:43;;;;;;;6.10;4.13;;;;;;;20.84;85.33;100865.84;7397324;19;20910;-63
2023/09/29 08:30:10;;;;;;;6.72;4.07;;;;;;;20.86;84.83;100867.25;7397790;19;20951;-63
2023/09/29 08:32:39;;;;;;;7.55;3.70;;;;;;;20.93;84.72;100867.09;7396824;19;20373;-63
2023/09/29 08:35:06;;;;;;;6.97;4.45;;;;;;;20.99;85.06;100871.53;7395708;19;21257;-63
2023/09/29 08:37:33;;;;;;;5.95;4.40;;;;;;;21.12;84.51;100860.50;7397701;19;20440;-63
2023/09/29 08:40:00;;;;;;;5.38;4.35;;;;;;;21.23;84.22;100866.06;7397709;19;20393;-63
2023/09/29 08:42:36;;;;;;;8.60;4.27;;;;;;;21.37;83.67;100870.09;7398101;19;20384;-63
2023/09/29 08:45:12;;;;;;;5.85;4.53;;;;;;;21.48;82.98;100863.84;7396110;19;20344;-63
2023/09/29 08:47:40;;;;;;;6.45;4.13;;;;;;;21.61;83.17;100859.19;7395912;19;20404;-63
2023/09/29 08:50:09;;;;;;;5.38;4.47;;;;;;;21.74;82.49;100865.13;7396237;19;20348;-63
2023/09/29 08:52:36;;;;;;;7.75;4.65;;;;;;;21.84;81.67;100864.44;7396960;19;20368;-63
2023/09/29 08:55:04;;;;;;;6.07;4.50;;;;;;;21.91;81.22;100857.00;7397120;19;20970;-63
2023/09/29 08:57:31;;;;;;;7.07;4.70;;;;;;;22.02;81.01;100855.28;7393286;19;20368;-63
2023/09/29 09:00:00;;;;;;;6.47;4.37;;;;;;;22.09;80.52;100852.41;7395452;19;20401;-63
2023/09/29 09:02:27;;;;;;;5.97;4.65;;;;;;;22.20;80.95;100854.19;7391235;19;20341;-63
2023/09/29 09:04:54;;;;;;;7.28;4.80;;;;;;;22.31;80.43;100852.47;7393611;19;20376;-63
2023/09/29 09:07:21;;;;;;;7.25;5.03;;;;;;;22.39;79.26;100852.03;7397062;19;20372;-63
2023/09/29 09:09:59;;;;;;;7.18;5.03;;;;;;;22.41;78.47;100851.81;7393629;19;20364;-63
2023/09/29 09:12:34;;;;;;;7.50;4.80;;;;;;;22.43;78.70;100849.66;7395564;19;20372;-63
2023/09/29 09:15:03;;;;;;;7.03;4.28;;;;;;;22.55;79.44;100836.84;7393610;19;20424;-63
2023/09/29 09:17:34;;;;;;;8.02;4.60;;;;;;;22.72;79.17;100837.59;7397146;19;20353;-63
2023/09/29 09:20:02;;;;;;;6.97;4.40;;;;;;;22.86;78.45;100831.78;7396757;19;20431;-63
2023/09/29 09:22:38;;;;;;;7.57;4.80;;;;;;;23.02;77.45;100827.41;7397073;19;20840;-63
2023/09/29 09:25:14;;;;;;;7.15;4.13;;;;;;;23.15;76.84;100833.22;7394599;19;20360;-63
2023/09/29 09:27:43;;;;;;;7.55;3.85;;;;;;;23.26;75.67;100825.22;7395622;19;20355;-63
2023/09/29 09:30:23;;;;;;;6.65;3.80;;;;;;;23.32;74.66;100829.59;7397897;19;20361;-63
2023/09/29 09:32:51;;;;;;;4.28;3.55;;;;;;;23.38;74.49;100820.44;7391361;19;20432;-63
2023/09/29 09:35:28;;;;;;;6.57;3.55;;;;;;;23.41;74.52;100826.16;7395031;19;20833;-63
2023/09/29 09:37:57;;;;;;;6.38;3.53;;;;;;;23.46;74.14;100830.81;7396481;19;20340;-63
2023/09/29 09:40:25;;;;;;;5.75;3.72;;;;;;;23.45;73.10;100825.66;7395179;19;20781;-63
2023/09/29 09:43:02;;;;;;;5.90;3.65;;;;;;;23.52;73.69;100831.66;7394618;19;20864;-63
2023/09/29 09:45:42;;;;;;;6.28;3.63;;;;;;;23.61;73.40;100820.09;7396186;19;20344;-63
2023/09/29 09:48:14;;;;;;;6.57;3.80;;;;;;;23.64;72.50;100812.53;7395255;19;20353;-63
2023/09/29 09:50:47;;;;;;;5.47;3.40;;;;;;;23.70;71.84;100822.34;7396808;19;20400;-63
2023/09/29 09:53:16;;;;;;;4.80;3.30;;;;;;;23.74;71.89;100823.44;7395870;19;20360;-63
2023/09/29 09:56:03;;;;;;;4.85;2.92;;;;;;;23.86;72.64;100818.66;7395525;19;20365;-63
2023/09/29 09:58:31;;;;;;;5.90;3.42;;;;;;;23.99;71.92;100812.81;7394877;19;20419;-64
2023/09/29 10:00:59;;;;;;;7.75;3.30;;;;;;;24.17;71.73;100808.03;7392389;19;20376;-63
2023/09/29 10:03:28;;;;;;;4.37;3.17;;;;;;;24.31;71.02;100811.91;7395439;19;20340;-63
2023/09/29 10:05:57;;;;;;;7.47;3.97;;;;;;;24.41;69.98;100803.78;7394820;19;20364;-63
2023/09/29 10:08:33;;;;;;;5.50;3.15;;;;;;;24.50;69.25;100803.31;7395080;19;20352;-63
2023/09/29 10:11:14;;;;;;;4.70;2.60;;;;;;;24.57;67.77;100801.19;7394693;19;20388;-63
2023/09/29 10:13:44;;;;;;;5.90;2.80;;;;;;;24.60;66.99;100803.38;7393249;19;20348;-63
2023/09/29 10:16:23;;;;;;;4.50;2.80;;;;;;;24.59;67.29;100799.03;7390131;19;20471;-63
2023/09/29 10:18:56;;;;;;;4.75;2.85;;;;;;;24.66;67.63;100802.31;7393302;19;20726;-64
2023/09/29 10:21:23;;;;;;;3.90;2.47;;;;;;;24.67;67.15;100793.06;7392824;19;20895;-64
2023/09/29 10:23:50;;;;;;;5.67;2.80;;;;;;;24.69;66.92;100792.81;7394042;19;20360;-64
2023/09/29 10:26:20;;;;;;;5.95;2.70;;;;;;;24.76;68.11;100791.50;7393907;19;20376;-64
2023/09/29 10:29:00;;;;;;;6.00;2.53;;;;;;;24.85;66.87;100796.41;7389009;19;20358;-67
2023/09/29 10:31:28;;;;;;;4.03;2.57;;;;;;;24.92;66.38;100799.66;7391661;19;20425;-64
2023/09/29 10:33:56;;;;;;;5.60;2.35;;;;;;;24.93;65.56;100801.31;7390031;19;20355;-64
2023/09/29 10:36:28;;;;;;;4.22;2.40;;;;;;;24.98;66.22;100798.59;7385576;19;20848;-64
2023/09/29 10:38:57;;;;;;;5.10;2.78;;;;;;;25.04;65.50;100802.94;7394027;19;20424;-62
2023/09/29 10:41:25;;;;;;;4.70;2.30;;;;;;;25.09;64.70;100805.66;7392631;19;20379;-63
2023/09/29 10:43:59;;;;;;;4.68;2.28;;;;;;;25.29;64.65;100809.50;7393676;19;20336;-64
2023/09/29 10:46:28;;;;;;;5.07;2.40;;;;;;;25.46;63.36;100799.22;7389718;19;20840;-64
2023/09/29 10:48:55;;;;;;;4.45;2.22;;;;;;;25.64;62.14;100804.06;7393190;19;20344;-64
2023/09/29 10:51:24;;;;;;;5.05;2.60;;;;;;;25.57;60.74;100795.38;7391593;19;20372;-64
2023/09/29 10:53:52;;;;;;;5.10;2.30;;;;;;;25.47;61.38;100792.66;7391503;19;20381;-64
2023/09/29 10:56:21;;;;;;;4.38;2.00;;;;;;;25.44;61.65;100793.22;7390140;19;20394;-64
2023/09/29 10:58:53;;;;;;;4.45;2.33;;;;;;;25.42;62.47;100790.78;7390670;19;20897;-64
2023/09/29 11:01:25;;;;;;;4.05;2.08;;;;;;;25.43;62.05;100778.00;7383945;19;20364;-64
2023/09/29 11:03:52;;;;;;;4.25;2.53;;;;;;;25.49;63.21;100781.53;7392745;19;20381;-64
2023/09/29 11:06:20;;;;;;;4.22;2.15;;;;;;;25.66;63.27;100770.38;7385819;19;20349;-64
2023/09/29 11:08:52;;;;;;;3.45;2.03;;;;;;;25.80;62.30;100777.69;7386938;19;20364;-64
2023/09/29 11:11:19;;;;;;;4.30;2.00;;;;;;;25.92;62.01;100773.91;7391563;19;20352;-64
2023/09/29 11:13:53;;;;;;;4.03;2.20;;;;;;;25.90;61.31;100766.00;7389332;19;20350;-64
2023/09/29 11:16:24;;;;;;;3.47;2.05;;;;;;;25.95;60.52;100774.16;7389378;19;20371;-64
2023/09/29 11:18:55;;;;;;;3.53;2.03;;;;;;;26.27;60.05;100764.81;7389237;19;20397;-62
2023/09/29 11:21:34;;;;;;;4.90;2.40;;;;;;;26.64;59.38;100753.50;7392935;19;20355;-62
2023/09/29 11:24:09;;;;;;;3.88;2.20;;;;;;;27.07;58.82;100763.81;7390012;19;20377;-63
2023/09/29 11:26:41;;;;;;;3.97;2.05;;;;;;;27.24;56.86;100758.84;7390540;19;20360;-63